sensor_id;sensor_type;location;lat;lon;timestamp;temperature;humidity
63289;DHT22;49412;48.162;-1.978;2023-04-24T00:00:55;10.50;99.90
63289;DHT22;49412;48.162;-1.978;2023-04-24T00:03:26;10.50;99.90
63289;DHT22;49412;48.162;-1.978;2023-04-24T00:05:53;10.40;99.90
63289;DHT22;49412;48.162;-1.978;2023-04-24T00:08:19;10.40;99.90
63289;DHT22;49412;48.162;-1.978;2023-04-24T00:10:45;10.40;99.90
63289;DHT22;49412;48.162;-1.978;2023-04-24T00:13:10;10.40;99.90
63289;DHT22;49412;48.162;-1.978;2023-04-24T00:15:36;10.30;99.90
63289;DHT22;49412;48.162;-1.978;2023-04-24T00:18:02;10.40;99.90
63289;DHT22;49412;48.162;-1.978;2023-04-24T00:20:27;10.50;99.90
63289;DHT22;49412;48.162;-1.978;2023-04-24T00:22:54;10.50;99.90
63289;DHT22;49412;48.162;-1.978;2023-04-24T00:25:20;10.40;99.90
63289;DHT22;49412;48.162;-1.978;2023-04-24T00:27:46;10.50;99.90
63289;DHT22;49412;48.162;-1.978;2023-04-24T00:30:11;10.60;99.90
63289;DHT22;49412;48.162;-1.978;2023-04-24T00:32:37;10.60;99.90
63289;DHT22;49412;48.162;-1.978;2023-04-24T00:35:02;10.60;99.90
63289;DHT22;49412;48.162;-1.978;2023-04-24T00:37:28;10.70;99.90
63289;DHT22;49412;48.162;-1.978;2023-04-24T00:39:54;10.60;99.90
63289;DHT22;49412;48.162;-1.978;2023-04-24T00:42:19;10.50;99.90
63289;DHT22;49412;48.162;-1.978;2023-04-24T00:44:45;10.50;99.90
63289;DHT22;49412;48.162;-1.978;2023-04-24T00:47:11;10.50;99.90
63289;DHT22;49412;48.162;-1.978;2023-04-24T00:49:37;10.40;99.90
63289;DHT22;49412;48.162;-1.978;2023-04-24T00:52:02;10.40;99.90
63289;DHT22;49412;48.162;-1.978;2023-04-24T00:54:32;10.40;99.90
63289;DHT22;49412;48.162;-1.978;2023-04-24T00:56:58;10.30;99.90
63289;DHT22;49412;48.162;-1.978;2023-04-24T00:59:24;10.30;99.90
63289;DHT22;49412;48.162;-1.978;2023-04-24T01:01:50;10.30;99.90
63289;DHT22;49412;48.162;-1.978;2023-04-24T01:04:15;10.30;99.90
63289;DHT22;49412;48.162;-1.978;2023-04-24T01:06:43;10.20;99.90
63289;DHT22;49412;48.162;-1.978;2023-04-24T01:09:09;10.20;99.90
63289;DHT22;49412;48.162;-1.978;2023-04-24T01:11:36;10.20;99.90
63289;DHT22;49412;48.162;-1.978;2023-04-24T01:14:01;10.30;99.90
63289;DHT22;49412;48.162;-1.978;2023-04-24T01:16:27;10.20;99.90
63289;DHT22;49412;48.162;-1.978;2023-04-24T01:18:53;10.20;99.90
63289;DHT22;49412;48.162;-1.978;2023-04-24T01:21:18;10.10;99.90
63289;DHT22;49412;48.162;-1.978;2023-04-24T01:23:46;10.00;99.90
63289;DHT22;49412;48.162;-1.978;2023-04-24T01:26:12;10.00;99.90
63289;DHT22;49412;48.162;-1.978;2023-04-24T01:28:38;10.10;99.90
63289;DHT22;49412;48.162;-1.978;2023-04-24T01:31:04;10.00;99.90
63289;DHT22;49412;48.162;-1.978;2023-04-24T01:33:29;10.00;99.90
63289;DHT22;49412;48.162;-1.978;2023-04-24T01:35:55;9.90;99.90
63289;DHT22;49412;48.162;-1.978;2023-04-24T01:38:21;9.80;99.90
63289;DHT22;49412;48.162;-1.978;2023-04-24T01:40:47;9.80;99.90
63289;DHT22;49412;48.162;-1.978;2023-04-24T01:43:12;9.80;99.90
63289;DHT22;49412;48.162;-1.978;2023-04-24T01:45:38;9.80;99.90
63289;DHT22;49412;48.162;-1.978;2023-04-24T01:48:03;9.80;99.90
63289;DHT22;49412;48.162;-1.978;2023-04-24T01:50:29;9.80;99.90
63289;DHT22;49412;48.162;-1.978;2023-04-24T01:52:55;9.80;99.90
63289;DHT22;49412;48.162;-1.978;2023-04-24T01:55:21;9.80;99.90
63289;DHT22;49412;48.162;-1.978;2023-04-24T01:57:47;9.80;99.90
63289;DHT22;49412;48.162;-1.978;2023-04-24T02:00:12;9.70;99.90
63289;DHT22;49412;48.162;-1.978;2023-04-24T02:02:41;9.70;99.90
63289;DHT22;49412;48.162;-1.978;2023-04-24T02:05:07;9.60;99.90
63289;DHT22;49412;48.162;-1.978;2023-04-24T02:07:33;9.70;99.90
63289;DHT22;49412;48.162;-1.978;2023-04-24T02:09:58;9.70;99.90
63289;DHT22;49412;48.162;-1.978;2023-04-24T02:12:24;9.80;99.90
63289;DHT22;49412;48.162;-1.978;2023-04-24T02:14:50;9.70;99.90
63289;DHT22;49412;48.162;-1.978;2023-04-24T02:17:16;9.70;99.90
63289;DHT22;49412;48.162;-1.978;2023-04-24T02:19:41;9.60;99.90
63289;DHT22;49412;48.162;-1.978;2023-04-24T02:22:07;9.60;99.90
63289;DHT22;49412;48.162;-1.978;2023-04-24T02:24:33;9.50;99.90
63289;DHT22;49412;48.162;-1.978;2023-04-24T02:26:58;9.50;99.90
63289;DHT22;49412;48.162;-1.978;2023-04-24T02:29:24;9.50;99.90
63289;DHT22;49412;48.162;-1.978;2023-04-24T02:31:49;9.50;99.90
63289;DHT22;49412;48.162;-1.978;2023-04-24T02:34:15;9.50;99.90
63289;DHT22;49412;48.162;-1.978;2023-04-24T02:36:41;9.50;99.90
63289;DHT22;49412;48.162;-1.978;2023-04-24T02:39:07;9.50;99.90
63289;DHT22;49412;48.162;-1.978;2023-04-24T02:41:32;9.50;99.90
63289;DHT22;49412;48.162;-1.978;2023-04-24T02:43:58;9.50;99.90
63289;DHT22;49412;48.162;-1.978;2023-04-24T02:46:24;9.60;99.90
63289;DHT22;49412;48.162;-1.978;2023-04-24T02:48:49;9.60;99.90
63289;DHT22;49412;48.162;-1.978;2023-04-24T02:51:15;9.60;99.90
63289;DHT22;49412;48.162;-1.978;2023-04-24T02:53:41;9.60;99.90
63289;DHT22;49412;48.162;-1.978;2023-04-24T02:56:06;9.60;99.90
63289;DHT22;49412;48.162;-1.978;2023-04-24T02:58:32;9.60;99.90
63289;DHT22;49412;48.162;-1.978;2023-04-24T03:00:57;9.60;99.90
63289;DHT22;49412;48.162;-1.978;2023-04-24T03:03:23;9.60;99.90
63289;DHT22;49412;48.162;-1.978;2023-04-24T03:05:49;9.50;99.90
63289;DHT22;49412;48.162;-1.978;2023-04-24T03:08:15;9.50;99.90
63289;DHT22;49412;48.162;-1.978;2023-04-24T03:10:41;9.50;99.90
63289;DHT22;49412;48.162;-1.978;2023-04-24T03:13:06;9.50;99.90
63289;DHT22;49412;48.162;-1.978;2023-04-24T03:15:32;9.50;99.90
63289;DHT22;49412;48.162;-1.978;2023-04-24T03:17:57;9.50;99.90
63289;DHT22;49412;48.162;-1.978;2023-04-24T03:20:23;9.50;99.90
63289;DHT22;49412;48.162;-1.978;2023-04-24T03:22:49;9.50;99.90
63289;DHT22;49412;48.162;-1.978;2023-04-24T03:25:14;9.60;99.90
63289;DHT22;49412;48.162;-1.978;2023-04-24T03:27:40;9.50;99.90
63289;DHT22;49412;48.162;-1.978;2023-04-24T03:30:07;9.60;99.90
63289;DHT22;49412;48.162;-1.978;2023-04-24T03:32:32;9.60;99.90
63289;DHT22;49412;48.162;-1.978;2023-04-24T03:34:58;9.60;99.90
63289;DHT22;49412;48.162;-1.978;2023-04-24T03:37:24;9.60;99.90
63289;DHT22;49412;48.162;-1.978;2023-04-24T03:39:49;9.60;99.90
63289;DHT22;49412;48.162;-1.978;2023-04-24T03:42:15;9.70;99.90
63289;DHT22;49412;48.162;-1.978;2023-04-24T03:44:40;9.70;99.90
63289;DHT22;49412;48.162;-1.978;2023-04-24T03:47:06;9.70;99.90
63289;DHT22;49412;48.162;-1.978;2023-04-24T03:49:32;9.80;99.90
63289;DHT22;49412;48.162;-1.978;2023-04-24T03:51:57;9.70;99.90
63289;DHT22;49412;48.162;-1.978;2023-04-24T03:54:23;9.70;99.90
63289;DHT22;49412;48.162;-1.978;2023-04-24T03:56:48;9.80;99.90
63289;DHT22;49412;48.162;-1.978;2023-04-24T03:59:14;9.80;99.90
63289;DHT22;49412;48.162;-1.978;2023-04-24T04:01:39;9.80;99.90
63289;DHT22;49412;48.162;-1.978;2023-04-24T04:04:05;9.90;99.90
63289;DHT22;49412;48.162;-1.978;2023-04-24T04:06:31;9.70;99.90
63289;DHT22;49412;48.162;-1.978;2023-04-24T04:08:57;9.70;99.90
63289;DHT22;49412;48.162;-1.978;2023-04-24T04:11:23;9.60;99.90
63289;DHT22;49412;48.162;-1.978;2023-04-24T04:13:48;9.60;99.90
63289;DHT22;49412;48.162;-1.978;2023-04-24T04:16:14;9.60;99.90
63289;DHT22;49412;48.162;-1.978;2023-04-24T04:18:42;9.50;99.90
63289;DHT22;49412;48.162;-1.978;2023-04-24T04:21:07;9.50;99.90
63289;DHT22;49412;48.162;-1.978;2023-04-24T04:23:33;9.50;99.90
63289;DHT22;49412;48.162;-1.978;2023-04-24T04:25:58;9.50;99.90
63289;DHT22;49412;48.162;-1.978;2023-04-24T04:28:25;9.60;99.90
63289;DHT22;49412;48.162;-1.978;2023-04-24T04:30:50;9.50;99.90
63289;DHT22;49412;48.162;-1.978;2023-04-24T04:33:20;9.50;99.90
63289;DHT22;49412;48.162;-1.978;2023-04-24T04:35:46;9.40;99.90
63289;DHT22;49412;48.162;-1.978;2023-04-24T04:38:14;9.40;99.90
63289;DHT22;49412;48.162;-1.978;2023-04-24T04:40:40;9.40;99.90
63289;DHT22;49412;48.162;-1.978;2023-04-24T04:43:05;9.40;99.90
63289;DHT22;49412;48.162;-1.978;2023-04-24T04:45:31;9.40;99.90
63289;DHT22;49412;48.162;-1.978;2023-04-24T04:47:58;9.40;99.90
63289;DHT22;49412;48.162;-1.978;2023-04-24T04:50:26;9.30;99.90
63289;DHT22;49412;48.162;-1.978;2023-04-24T04:52:52;9.30;99.90
63289;DHT22;49412;48.162;-1.978;2023-04-24T04:55:17;9.20;99.90
63289;DHT22;49412;48.162;-1.978;2023-04-24T04:57:45;9.20;99.90
63289;DHT22;49412;48.162;-1.978;2023-04-24T05:00:11;9.20;99.90
63289;DHT22;49412;48.162;-1.978;2023-04-24T05:02:37;9.10;99.90
63289;DHT22;49412;48.162;-1.978;2023-04-24T05:05:02;9.00;99.90
63289;DHT22;49412;48.162;-1.978;2023-04-24T05:07:28;8.90;99.90
63289;DHT22;49412;48.162;-1.978;2023-04-24T05:09:53;8.90;99.90
63289;DHT22;49412;48.162;-1.978;2023-04-24T05:12:19;8.80;99.90
63289;DHT22;49412;48.162;-1.978;2023-04-24T05:14:44;8.80;99.90
63289;DHT22;49412;48.162;-1.978;2023-04-24T05:17:10;8.80;99.90
63289;DHT22;49412;48.162;-1.978;2023-04-24T05:19:36;8.70;99.90
63289;DHT22;49412;48.162;-1.978;2023-04-24T05:22:03;8.80;99.90
63289;DHT22;49412;48.162;-1.978;2023-04-24T05:26:57;8.70;99.90
63289;DHT22;49412;48.162;-1.978;2023-04-24T05:29:23;8.70;99.90
63289;DHT22;49412;48.162;-1.978;2023-04-24T05:31:50;8.70;99.90
63289;DHT22;49412;48.162;-1.978;2023-04-24T05:34:16;8.80;99.90
63289;DHT22;49412;48.162;-1.978;2023-04-24T05:36:42;8.70;99.90
63289;DHT22;49412;48.162;-1.978;2023-04-24T05:39:08;8.60;99.90
63289;DHT22;49412;48.162;-1.978;2023-04-24T05:41:34;8.70;99.90
63289;DHT22;49412;48.162;-1.978;2023-04-24T05:43:59;8.70;99.90
63289;DHT22;49412;48.162;-1.978;2023-04-24T05:46:25;8.70;99.90
63289;DHT22;49412;48.162;-1.978;2023-04-24T05:48:50;8.70;99.90
63289;DHT22;49412;48.162;-1.978;2023-04-24T05:51:16;8.70;99.90
63289;DHT22;49412;48.162;-1.978;2023-04-24T05:53:41;8.70;99.90
63289;DHT22;49412;48.162;-1.978;2023-04-24T05:56:07;8.70;99.90
63289;DHT22;49412;48.162;-1.978;2023-04-24T05:58:33;8.80;99.90
63289;DHT22;49412;48.162;-1.978;2023-04-24T06:00:58;8.70;99.90
63289;DHT22;49412;48.162;-1.978;2023-04-24T06:03:26;8.90;99.90
63289;DHT22;49412;48.162;-1.978;2023-04-24T06:05:52;9.00;99.90
63289;DHT22;49412;48.162;-1.978;2023-04-24T06:08:18;9.00;99.90
63289;DHT22;49412;48.162;-1.978;2023-04-24T06:10:43;9.00;99.90
63289;DHT22;49412;48.162;-1.978;2023-04-24T06:13:09;9.00;99.90
63289;DHT22;49412;48.162;-1.978;2023-04-24T06:15:36;9.20;99.90
63289;DHT22;49412;48.162;-1.978;2023-04-24T06:18:02;9.40;99.90
63289;DHT22;49412;48.162;-1.978;2023-04-24T06:20:28;9.60;99.90
63289;DHT22;49412;48.162;-1.978;2023-04-24T06:22:53;9.40;99.90
63289;DHT22;49412;48.162;-1.978;2023-04-24T06:25:19;9.50;99.90
63289;DHT22;49412;48.162;-1.978;2023-04-24T06:27:45;10.00;99.90
63289;DHT22;49412;48.162;-1.978;2023-04-24T06:30:10;10.40;99.90
63289;DHT22;49412;48.162;-1.978;2023-04-24T06:32:36;10.60;99.90
63289;DHT22;49412;48.162;-1.978;2023-04-24T06:35:01;10.70;99.90
63289;DHT22;49412;48.162;-1.978;2023-04-24T06:37:27;10.90;99.90
63289;DHT22;49412;48.162;-1.978;2023-04-24T06:39:53;10.90;99.90
63289;DHT22;49412;48.162;-1.978;2023-04-24T06:42:18;11.20;99.90
63289;DHT22;49412;48.162;-1.978;2023-04-24T06:44:46;11.80;99.90
63289;DHT22;49412;48.162;-1.978;2023-04-24T06:47:11;11.80;99.90
63289;DHT22;49412;48.162;-1.978;2023-04-24T06:49:39;12.40;99.90
63289;DHT22;49412;48.162;-1.978;2023-04-24T06:52:05;12.90;99.90
63289;DHT22;49412;48.162;-1.978;2023-04-24T06:54:31;13.20;99.90
63289;DHT22;49412;48.162;-1.978;2023-04-24T06:56:56;13.00;99.90
63289;DHT22;49412;48.162;-1.978;2023-04-24T06:59:26;12.80;99.90
63289;DHT22;49412;48.162;-1.978;2023-04-24T07:01:51;12.50;99.90
63289;DHT22;49412;48.162;-1.978;2023-04-24T07:04:17;12.50;99.90
63289;DHT22;49412;48.162;-1.978;2023-04-24T07:06:43;12.80;99.90
63289;DHT22;49412;48.162;-1.978;2023-04-24T07:09:09;13.00;99.90
63289;DHT22;49412;48.162;-1.978;2023-04-24T07:11:35;12.80;99.90
63289;DHT22;49412;48.162;-1.978;2023-04-24T07:14:02;13.10;99.90
63289;DHT22;49412;48.162;-1.978;2023-04-24T07:16:27;13.10;99.90
63289;DHT22;49412;48.162;-1.978;2023-04-24T07:18:53;13.50;99.90
63289;DHT22;49412;48.162;-1.978;2023-04-24T07:21:18;13.90;99.90
63289;DHT22;49412;48.162;-1.978;2023-04-24T07:23:44;13.90;99.90
63289;DHT22;49412;48.162;-1.978;2023-04-24T07:26:10;13.90;99.90
63289;DHT22;49412;48.162;-1.978;2023-04-24T07:28:36;14.10;99.90
63289;DHT22;49412;48.162;-1.978;2023-04-24T07:31:01;14.20;99.90
63289;DHT22;49412;48.162;-1.978;2023-04-24T07:33:27;14.00;99.90
63289;DHT22;49412;48.162;-1.978;2023-04-24T07:35:52;14.20;99.90
63289;DHT22;49412;48.162;-1.978;2023-04-24T07:38:18;14.20;99.90
63289;DHT22;49412;48.162;-1.978;2023-04-24T07:40:47;14.50;99.90
63289;DHT22;49412;48.162;-1.978;2023-04-24T07:43:13;14.90;99.90
63289;DHT22;49412;48.162;-1.978;2023-04-24T07:45:39;14.70;99.90
63289;DHT22;49412;48.162;-1.978;2023-04-24T07:48:05;15.00;99.90
63289;DHT22;49412;48.162;-1.978;2023-04-24T07:50:30;15.50;99.90
63289;DHT22;49412;48.162;-1.978;2023-04-24T07:52:56;15.50;99.90
63289;DHT22;49412;48.162;-1.978;2023-04-24T07:55:22;15.40;99.90
63289;DHT22;49412;48.162;-1.978;2023-04-24T07:57:47;16.10;99.90
63289;DHT22;49412;48.162;-1.978;2023-04-24T08:00:13;17.50;99.90
63289;DHT22;49412;48.162;-1.978;2023-04-24T08:02:39;18.50;99.90
63289;DHT22;49412;48.162;-1.978;2023-04-24T08:05:05;18.10;99.90
63289;DHT22;49412;48.162;-1.978;2023-04-24T08:07:31;18.50;99.90
63289;DHT22;49412;48.162;-1.978;2023-04-24T08:09:56;18.90;99.90
63289;DHT22;49412;48.162;-1.978;2023-04-24T08:12:22;19.20;99.90
63289;DHT22;49412;48.162;-1.978;2023-04-24T08:14:48;18.70;99.90
63289;DHT22;49412;48.162;-1.978;2023-04-24T08:17:13;19.20;99.90
63289;DHT22;49412;48.162;-1.978;2023-04-24T08:19:40;18.20;99.90
63289;DHT22;49412;48.162;-1.978;2023-04-24T08:22:08;18.80;99.90
63289;DHT22;49412;48.162;-1.978;2023-04-24T08:24:34;20.10;99.90
63289;DHT22;49412;48.162;-1.978;2023-04-24T08:26:59;20.80;99.90
63289;DHT22;49412;48.162;-1.978;2023-04-24T08:29:26;21.30;99.90
63289;DHT22;49412;48.162;-1.978;2023-04-24T08:31:52;22.80;99.90
63289;DHT22;49412;48.162;-1.978;2023-04-24T08:34:20;23.50;99.90
63289;DHT22;49412;48.162;-1.978;2023-04-24T08:36:45;23.20;99.90
63289;DHT22;49412;48.162;-1.978;2023-04-24T08:39:11;23.50;99.90
63289;DHT22;49412;48.162;-1.978;2023-04-24T08:41:36;22.10;99.90
63289;DHT22;49412;48.162;-1.978;2023-04-24T08:44:03;22.80;99.90
63289;DHT22;49412;48.162;-1.978;2023-04-24T08:46:29;23.00;99.90
63289;DHT22;49412;48.162;-1.978;2023-04-24T08:48:55;22.40;99.90
63289;DHT22;49412;48.162;-1.978;2023-04-24T08:51:21;22.40;99.90
63289;DHT22;49412;48.162;-1.978;2023-04-24T08:53:47;23.20;99.90
63289;DHT22;49412;48.162;-1.978;2023-04-24T08:56:13;22.00;99.90
63289;DHT22;49412;48.162;-1.978;2023-04-24T08:58:39;20.60;99.90
63289;DHT22;49412;48.162;-1.978;2023-04-24T09:01:05;22.20;99.90
63289;DHT22;49412;48.162;-1.978;2023-04-24T09:03:30;23.00;99.90
63289;DHT22;49412;48.162;-1.978;2023-04-24T09:05:56;22.30;99.90
63289;DHT22;49412;48.162;-1.978;2023-04-24T09:08:24;22.90;99.90
63289;DHT22;49412;48.162;-1.978;2023-04-24T09:10:49;23.50;99.90
63289;DHT22;49412;48.162;-1.978;2023-04-24T09:13:15;22.00;99.90
63289;DHT22;49412;48.162;-1.978;2023-04-24T09:15:41;20.50;99.90
63289;DHT22;49412;48.162;-1.978;2023-04-24T09:18:06;23.20;99.90
63289;DHT22;49412;48.162;-1.978;2023-04-24T09:20:32;23.40;99.90
63289;DHT22;49412;48.162;-1.978;2023-04-24T09:22:58;21.50;99.90
63289;DHT22;49412;48.162;-1.978;2023-04-24T09:25:33;19.50;99.90
63289;DHT22;49412;48.162;-1.978;2023-04-24T09:28:02;18.10;99.90
63289;DHT22;49412;48.162;-1.978;2023-04-24T09:30:28;17.80;99.90
63289;DHT22;49412;48.162;-1.978;2023-04-24T09:33:13;18.70;99.90
63289;DHT22;49412;48.162;-1.978;2023-04-24T09:35:42;19.50;99.90
63289;DHT22;49412;48.162;-1.978;2023-04-24T09:38:08;20.40;99.90
63289;DHT22;49412;48.162;-1.978;2023-04-24T09:40:35;20.80;99.90
63289;DHT22;49412;48.162;-1.978;2023-04-24T09:43:01;21.60;99.90
63289;DHT22;49412;48.162;-1.978;2023-04-24T09:45:28;22.00;99.90
63289;DHT22;49412;48.162;-1.978;2023-04-24T09:47:54;21.60;99.90
63289;DHT22;49412;48.162;-1.978;2023-04-24T09:50:20;21.00;99.90
63289;DHT22;49412;48.162;-1.978;2023-04-24T09:52:56;20.10;99.90
63289;DHT22;49412;48.162;-1.978;2023-04-24T09:55:22;18.60;99.90
63289;DHT22;49412;48.162;-1.978;2023-04-24T09:57:48;18.10;99.90
63289;DHT22;49412;48.162;-1.978;2023-04-24T10:00:17;17.60;99.90
63289;DHT22;49412;48.162;-1.978;2023-04-24T10:02:43;16.90;99.90
63289;DHT22;49412;48.162;-1.978;2023-04-24T10:05:10;16.90;99.90
63289;DHT22;49412;48.162;-1.978;2023-04-24T10:07:37;16.40;99.90
63289;DHT22;49412;48.162;-1.978;2023-04-24T10:10:03;16.60;99.90
63289;DHT22;49412;48.162;-1.978;2023-04-24T10:12:28;16.80;99.90
63289;DHT22;49412;48.162;-1.978;2023-04-24T10:14:55;20.50;99.90
63289;DHT22;49412;48.162;-1.978;2023-04-24T10:17:21;27.30;99.90
63289;DHT22;49412;48.162;-1.978;2023-04-24T10:19:47;32.00;99.90
63289;DHT22;49412;48.162;-1.978;2023-04-24T10:22:13;33.50;99.90
63289;DHT22;49412;48.162;-1.978;2023-04-24T10:24:40;32.60;99.90
63289;DHT22;49412;48.162;-1.978;2023-04-24T10:27:06;27.80;99.90
63289;DHT22;49412;48.162;-1.978;2023-04-24T10:29:33;22.80;99.90
63289;DHT22;49412;48.162;-1.978;2023-04-24T10:32:01;19.20;99.90
63289;DHT22;49412;48.162;-1.978;2023-04-24T10:34:26;18.60;99.90
63289;DHT22;49412;48.162;-1.978;2023-04-24T10:36:53;18.00;99.90
63289;DHT22;49412;48.162;-1.978;2023-04-24T10:39:19;17.70;99.90
63289;DHT22;49412;48.162;-1.978;2023-04-24T10:41:46;17.20;99.90
63289;DHT22;49412;48.162;-1.978;2023-04-24T10:46:44;17.00;99.90
63289;DHT22;49412;48.162;-1.978;2023-04-24T10:49:10;17.20;99.90
63289;DHT22;49412;48.162;-1.978;2023-04-24T10:54:24;16.80;99.90
63289;DHT22;49412;48.162;-1.978;2023-04-24T10:56:50;16.70;99.90
63289;DHT22;49412;48.162;-1.978;2023-04-24T10:59:26;18.30;99.90
63289;DHT22;49412;48.162;-1.978;2023-04-24T11:01:55;20.90;99.90
63289;DHT22;49412;48.162;-1.978;2023-04-24T11:04:38;24.90;99.90
63289;DHT22;49412;48.162;-1.978;2023-04-24T11:07:04;28.00;99.90
63289;DHT22;49412;48.162;-1.978;2023-04-24T11:09:31;28.80;99.90
63289;DHT22;49412;48.162;-1.978;2023-04-24T11:12:04;30.60;99.90
63289;DHT22;49412;48.162;-1.978;2023-04-24T11:20:00;33.30;99.90
63289;DHT22;49412;48.162;-1.978;2023-04-24T11:22:26;34.50;99.90
63289;DHT22;49412;48.162;-1.978;2023-04-24T11:24:53;33.50;99.90
63289;DHT22;49412;48.162;-1.978;2023-04-24T11:27:20;27.40;99.90
63289;DHT22;49412;48.162;-1.978;2023-04-24T11:29:51;23.50;99.90
63289;DHT22;49412;48.162;-1.978;2023-04-24T11:34:51;20.20;99.90
63289;DHT22;49412;48.162;-1.978;2023-04-24T11:37:17;19.60;99.90
63289;DHT22;49412;48.162;-1.978;2023-04-24T11:39:42;21.70;99.90
63289;DHT22;49412;48.162;-1.978;2023-04-24T11:42:08;21.70;99.90
63289;DHT22;49412;48.162;-1.978;2023-04-24T11:44:34;22.30;99.90
63289;DHT22;49412;48.162;-1.978;2023-04-24T11:47:05;22.50;99.90
63289;DHT22;49412;48.162;-1.978;2023-04-24T11:49:32;22.90;99.90
63289;DHT22;49412;48.162;-1.978;2023-04-24T11:51:57;22.40;99.90
63289;DHT22;49412;48.162;-1.978;2023-04-24T11:54:25;22.20;99.90
63289;DHT22;49412;48.162;-1.978;2023-04-24T11:56:50;21.80;99.90
63289;DHT22;49412;48.162;-1.978;2023-04-24T11:59:16;21.40;99.90
63289;DHT22;49412;48.162;-1.978;2023-04-24T12:01:42;24.90;99.90
63289;DHT22;49412;48.162;-1.978;2023-04-24T12:04:08;24.30;99.90
63289;DHT22;49412;48.162;-1.978;2023-04-24T12:06:33;23.20;99.90
63289;DHT22;49412;48.162;-1.978;2023-04-24T12:08:59;21.80;99.90
63289;DHT22;49412;48.162;-1.978;2023-04-24T12:11:25;20.30;99.90
63289;DHT22;49412;48.162;-1.978;2023-04-24T12:13:51;19.60;99.90
63289;DHT22;49412;48.162;-1.978;2023-04-24T12:16:16;19.10;99.90
63289;DHT22;49412;48.162;-1.978;2023-04-24T12:18:42;18.50;99.90
63289;DHT22;49412;48.162;-1.978;2023-04-24T12:21:17;18.50;99.90
63289;DHT22;49412;48.162;-1.978;2023-04-24T12:23:43;19.30;99.90
63289;DHT22;49412;48.162;-1.978;2023-04-24T12:26:10;19.40;99.90
63289;DHT22;49412;48.162;-1.978;2023-04-24T12:28:36;19.20;99.90
63289;DHT22;49412;48.162;-1.978;2023-04-24T12:31:02;21.10;99.90
63289;DHT22;49412;48.162;-1.978;2023-04-24T12:33:28;26.50;99.90
63289;DHT22;49412;48.162;-1.978;2023-04-24T12:35:57;29.00;99.90
63289;DHT22;49412;48.162;-1.978;2023-04-24T12:38:23;28.80;99.90
63289;DHT22;49412;48.162;-1.978;2023-04-24T12:41:04;29.40;99.90
63289;DHT22;49412;48.162;-1.978;2023-04-24T12:43:29;29.20;99.90
63289;DHT22;49412;48.162;-1.978;2023-04-24T12:45:55;30.70;99.90
63289;DHT22;49412;48.162;-1.978;2023-04-24T12:48:22;29.60;99.90
63289;DHT22;49412;48.162;-1.978;2023-04-24T12:50:48;27.70;99.90
63289;DHT22;49412;48.162;-1.978;2023-04-24T12:53:14;26.20;99.90
63289;DHT22;49412;48.162;-1.978;2023-04-24T12:55:39;26.10;99.90
63289;DHT22;49412;48.162;-1.978;2023-04-24T12:58:05;24.80;99.90
63289;DHT22;49412;48.162;-1.978;2023-04-24T13:00:31;23.10;99.90
63289;DHT22;49412;48.162;-1.978;2023-04-24T13:02:56;21.40;99.90
63289;DHT22;49412;48.162;-1.978;2023-04-24T13:05:22;20.20;99.90
63289;DHT22;49412;48.162;-1.978;2023-04-24T13:07:48;19.70;99.90
63289;DHT22;49412;48.162;-1.978;2023-04-24T13:10:13;19.90;99.90
63289;DHT22;49412;48.162;-1.978;2023-04-24T13:12:39;20.50;99.90
63289;DHT22;49412;48.162;-1.978;2023-04-24T13:15:05;22.30;99.90
63289;DHT22;49412;48.162;-1.978;2023-04-24T13:17:31;23.60;99.90
63289;DHT22;49412;48.162;-1.978;2023-04-24T13:19:57;27.50;99.90
63289;DHT22;49412;48.162;-1.978;2023-04-24T13:22:22;32.40;99.90
63289;DHT22;49412;48.162;-1.978;2023-04-24T13:24:48;32.80;99.90
63289;DHT22;49412;48.162;-1.978;2023-04-24T13:27:14;32.00;99.90
63289;DHT22;49412;48.162;-1.978;2023-04-24T13:29:40;29.90;99.90
63289;DHT22;49412;48.162;-1.978;2023-04-24T13:32:06;26.60;99.90
63289;DHT22;49412;48.162;-1.978;2023-04-24T13:34:32;25.80;99.90
63289;DHT22;49412;48.162;-1.978;2023-04-24T13:36:57;26.80;99.90
63289;DHT22;49412;48.162;-1.978;2023-04-24T13:39:23;30.40;99.90
63289;DHT22;49412;48.162;-1.978;2023-04-24T13:41:49;29.80;99.90
63289;DHT22;49412;48.162;-1.978;2023-04-24T13:44:16;26.30;99.90
63289;DHT22;49412;48.162;-1.978;2023-04-24T13:46:42;24.10;99.90
63289;DHT22;49412;48.162;-1.978;2023-04-24T13:49:09;22.50;99.90
63289;DHT22;49412;48.162;-1.978;2023-04-24T13:51:35;21.00;99.90
63289;DHT22;49412;48.162;-1.978;2023-04-24T13:54:01;19.90;99.90
63289;DHT22;49412;48.162;-1.978;2023-04-24T13:56:26;19.20;99.90
63289;DHT22;49412;48.162;-1.978;2023-04-24T13:58:52;18.60;99.90
63289;DHT22;49412;48.162;-1.978;2023-04-24T14:01:19;17.50;99.90
63289;DHT22;49412;48.162;-1.978;2023-04-24T14:03:45;16.80;99.90
63289;DHT22;49412;48.162;-1.978;2023-04-24T14:06:10;16.60;99.90
63289;DHT22;49412;48.162;-1.978;2023-04-24T14:08:36;16.80;99.90
63289;DHT22;49412;48.162;-1.978;2023-04-24T14:11:01;18.80;99.90
63289;DHT22;49412;48.162;-1.978;2023-04-24T14:13:28;21.60;99.90
63289;DHT22;49412;48.162;-1.978;2023-04-24T14:15:53;24.20;99.90
63289;DHT22;49412;48.162;-1.978;2023-04-24T14:18:19;27.50;99.90
63289;DHT22;49412;48.162;-1.978;2023-04-24T14:20:45;27.70;99.90
63289;DHT22;49412;48.162;-1.978;2023-04-24T14:23:10;27.40;99.90
63289;DHT22;49412;48.162;-1.978;2023-04-24T14:25:36;27.60;99.90
63289;DHT22;49412;48.162;-1.978;2023-04-24T14:28:02;26.60;99.90
63289;DHT22;49412;48.162;-1.978;2023-04-24T14:30:27;26.40;99.90
63289;DHT22;49412;48.162;-1.978;2023-04-24T14:32:53;23.90;99.90
63289;DHT22;49412;48.162;-1.978;2023-04-24T14:35:18;23.30;99.90
63289;DHT22;49412;48.162;-1.978;2023-04-24T14:37:44;22.30;99.90
63289;DHT22;49412;48.162;-1.978;2023-04-24T14:40:10;21.30;99.90
63289;DHT22;49412;48.162;-1.978;2023-04-24T14:42:35;20.00;99.90
63289;DHT22;49412;48.162;-1.978;2023-04-24T14:45:01;19.50;99.90
63289;DHT22;49412;48.162;-1.978;2023-04-24T14:47:27;21.00;99.90
63289;DHT22;49412;48.162;-1.978;2023-04-24T14:49:53;21.80;99.90
63289;DHT22;49412;48.162;-1.978;2023-04-24T14:52:18;23.10;99.90
63289;DHT22;49412;48.162;-1.978;2023-04-24T14:54:44;23.40;99.90
63289;DHT22;49412;48.162;-1.978;2023-04-24T14:57:10;21.70;99.90
63289;DHT22;49412;48.162;-1.978;2023-04-24T14:59:36;19.90;99.90
63289;DHT22;49412;48.162;-1.978;2023-04-24T15:02:01;19.80;99.90
63289;DHT22;49412;48.162;-1.978;2023-04-24T15:04:27;20.80;99.90
63289;DHT22;49412;48.162;-1.978;2023-04-24T15:06:53;21.20;99.90
63289;DHT22;49412;48.162;-1.978;2023-04-24T15:09:22;20.40;99.90
63289;DHT22;49412;48.162;-1.978;2023-04-24T15:11:49;19.60;99.90
63289;DHT22;49412;48.162;-1.978;2023-04-24T15:14:15;19.80;99.90
63289;DHT22;49412;48.162;-1.978;2023-04-24T15:16:41;19.50;99.90
63289;DHT22;49412;48.162;-1.978;2023-04-24T15:19:06;19.10;99.90
63289;DHT22;49412;48.162;-1.978;2023-04-24T15:21:32;19.40;99.90
63289;DHT22;49412;48.162;-1.978;2023-04-24T15:23:58;19.50;99.90
63289;DHT22;49412;48.162;-1.978;2023-04-24T15:26:23;19.10;99.90
63289;DHT22;49412;48.162;-1.978;2023-04-24T15:28:49;18.90;99.90